Time;durP1;ratioP1;P1;durP2;ratioP2;P2;SDS_P1;SDS_P2;PMS_P1;PMS_P2;Temp;Humidity;BMP_temperature;BMP_pressure;BME280_temperature;BME280_humidity;BME280_pressure;Samples;Min_cycle;Max_cycle;Signal;HPM_P1;HPM_P2
2022/04/07 00:00:53;;;;;;;3.42;2.90;;;7.40;99.90;;;;;;5084170;28;20036;-75
2022/04/07 00:03:19;;;;;;;3.05;2.10;;;7.40;99.90;;;;;;5085512;28;20024;-75
2022/04/07 00:05:45;;;;;;;2.45;2.20;;;7.30;99.90;;;;;;5080593;28;20024;-75
2022/04/07 00:08:11;;;;;;;2.97;2.67;;;7.30;99.90;;;;;;5088527;28;20482;-75
2022/04/07 00:10:37;;;;;;;3.65;2.63;;;7.30;99.90;;;;;;5080411;28;20094;-75
2022/04/07 00:13:03;;;;;;;3.63;3.03;;;7.30;99.90;;;;;;5082528;28;20563;-75
2022/04/07 00:15:30;;;;;;;3.30;3.00;;;7.20;99.90;;;;;;5070538;28;20012;-74
2022/04/07 00:17:57;;;;;;;4.03;3.08;;;7.40;99.90;;;;;;5089074;28;20024;-75
2022/04/07 00:20:23;;;;;;;3.88;3.05;;;7.50;99.90;;;;;;5075639;28;20027;-75
2022/04/07 00:22:50;;;;;;;4.88;3.78;;;7.50;99.90;;;;;;5084101;28;20024;-75
2022/04/07 00:25:16;;;;;;;4.45;3.70;;;7.60;99.90;;;;;;5092529;28;20024;-74
2022/04/07 00:27:42;;;;;;;6.30;4.15;;;7.60;99.90;;;;;;5074659;28;20110;-75
2022/04/07 00:30:11;;;;;;;6.75;3.80;;;7.60;99.90;;;;;;5080496;28;20394;-75
2022/04/07 00:32:41;;;;;;;6.30;4.72;;;7.60;99.90;;;;;;5091759;28;20308;-75
2022/04/07 00:35:08;;;;;;;5.18;3.60;;;7.70;99.90;;;;;;5092499;28;20051;-74
2022/04/07 00:37:34;;;;;;;6.22;4.00;;;7.60;99.90;;;;;;5092359;28;20024;-75
2022/04/07 00:40:00;;;;;;;6.05;4.25;;;7.60;99.90;;;;;;5092921;28;20194;-75
2022/04/07 00:42:26;;;;;;;4.93;4.22;;;7.70;99.90;;;;;;5076619;28;20066;-75
2022/04/07 00:44:51;;;;;;;7.07;4.30;;;7.70;99.90;;;;;;5094001;28;20024;-74
2022/04/07 00:47:18;;;;;;;5.00;4.18;;;7.70;99.90;;;;;;5091780;28;20505;-75
2022/04/07 00:49:43;;;;;;;6.28;3.83;;;7.70;99.90;;;;;;5090575;28;20070;-75
2022/04/07 00:52:10;;;;;;;5.28;4.07;;;7.80;99.90;;;;;;5087588;28;20052;-75
2022/04/07 00:54:36;;;;;;;5.82;4.28;;;7.80;99.90;;;;;;5072248;28;20497;-75
2022/04/07 00:57:02;;;;;;;5.65;4.30;;;7.80;99.90;;;;;;5086276;28;20034;-75
2022/04/07 00:59:28;;;;;;;7.38;4.53;;;7.80;99.90;;;;;;5092255;28;20030;-75
2022/04/07 01:01:54;;;;;;;6.72;4.25;;;7.80;99.90;;;;;;5083646;28;20020;-75
2022/04/07 01:04:22;;;;;;;7.10;4.45;;;7.80;99.90;;;;;;5091205;28;20054;-75
2022/04/07 01:06:48;;;;;;;5.78;4.00;;;7.80;99.90;;;;;;5089056;28;20528;-75
2022/04/07 01:09:17;;;;;;;4.78;3.67;;;7.80;99.90;;;;;;5072435;28;20036;-75
2022/04/07 01:11:45;;;;;;;5.78;4.15;;;7.90;99.90;;;;;;5091547;28;20054;-75
2022/04/07 01:14:11;;;;;;;6.30;4.35;;;7.90;99.90;;;;;;5083262;28;20075;-75
2022/04/07 01:16:37;;;;;;;5.88;4.18;;;7.90;99.90;;;;;;5084635;28;20501;-75
2022/04/07 01:19:03;;;;;;;4.93;3.53;;;7.90;99.90;;;;;;5075540;28;20048;-75
2022/04/07 01:21:32;;;;;;;8.43;4.68;;;7.80;99.90;;;;;;5075700;28;20024;-75
2022/04/07 01:24:09;;;;;;;4.82;4.00;;;7.80;99.90;;;;;;5087595;28;20063;-75
2022/04/07 01:26:40;;;;;;;6.30;3.92;;;7.80;99.90;;;;;;5078144;28;20028;-75
2022/04/07 01:29:07;;;;;;;5.50;3.63;;;7.80;99.90;;;;;;5075125;28;20108;-75
2022/04/07 01:31:33;;;;;;;4.93;3.78;;;7.80;99.90;;;;;;5072779;28;20608;-75
2022/04/07 01:34:00;;;;;;;5.88;3.00;;;8.00;99.90;;;;;;5091712;28;20024;-75
2022/04/07 01:36:28;;;;;;;4.20;3.10;;;8.00;99.90;;;;;;5091845;28;20031;-74
2022/04/07 01:38:55;;;;;;;3.83;3.00;;;8.00;99.90;;;;;;5084915;28;20031;-75
2022/04/07 01:41:21;;;;;;;4.75;3.40;;;8.00;99.90;;;;;;5091491;28;20091;-75
2022/04/07 01:43:52;;;;;;;3.22;2.88;;;8.10;99.90;;;;;;5082983;28;20481;-75
2022/04/07 01:46:21;;;;;;;6.27;2.97;;;8.00;99.90;;;;;;5086964;28;20024;-75
2022/04/07 01:48:47;;;;;;;3.47;2.67;;;8.00;99.90;;;;;;5089830;28;20028;-75
2022/04/07 01:51:13;;;;;;;3.30;3.00;;;8.00;99.90;;;;;;5093174;28;20035;-75
2022/04/07 01:53:39;;;;;;;4.55;3.08;;;8.00;99.90;;;;;;5088591;28;20020;-75
2022/04/07 01:56:06;;;;;;;4.07;3.47;;;7.90;99.90;;;;;;5076539;28;20125;-75
2022/04/07 01:58:32;;;;;;;6.40;3.42;;;7.90;99.90;;;;;;5079501;28;20031;-75
2022/04/07 02:00:58;;;;;;;4.95;3.60;;;8.00;99.90;;;;;;5076384;28;20028;-75
2022/04/07 02:03:24;;;;;;;3.90;3.20;;;8.00;99.90;;;;;;5091944;28;20056;-75
2022/04/07 02:05:50;;;;;;;3.97;3.25;;;8.00;99.90;;;;;;5091055;28;20502;-75
2022/04/07 02:08:15;;;;;;;5.80;3.47;;;8.10;99.90;;;;;;5090057;28;20559;-75
2022/04/07 02:10:41;;;;;;;3.80;3.30;;;8.10;99.90;;;;;;5090442;28;20039;-75
2022/04/07 02:13:07;;;;;;;4.80;3.40;;;8.10;99.90;;;;;;5085853;28;20070;-75
2022/04/07 02:15:33;;;;;;;4.05;3.25;;;8.20;99.90;;;;;;5086357;28;20063;-75
2022/04/07 02:17:59;;;;;;;5.53;3.80;;;8.30;99.90;;;;;;5085727;28;20111;-75
2022/04/07 02:20:24;;;;;;;4.70;3.92;;;8.20;99.90;;;;;;5078453;28;20577;-75
2022/04/07 02:22:50;;;;;;;3.80;3.13;;;8.20;99.90;;;;;;5085611;28;20047;-75
2022/04/07 02:25:16;;;;;;;4.80;3.53;;;8.20;99.90;;;;;;5085950;28;20442;-75
2022/04/07 02:27:44;;;;;;;5.47;3.35;;;8.20;99.90;;;;;;5072485;28;20093;-75
2022/04/07 02:30:14;;;;;;;5.70;3.20;;;8.20;99.90;;;;;;5084951;28;20099;-74
2022/04/07 02:32:41;;;;;;;5.60;2.72;;;8.10;99.90;;;;;;5080993;28;20562;-75
2022/04/07 02:35:08;;;;;;;4.60;3.17;;;8.30;99.90;;;;;;5081684;28;20027;-75
2022/04/07 02:37:34;;;;;;;4.05;2.70;;;8.20;99.90;;;;;;5089842;28;20512;-75
2022/04/07 02:39:59;;;;;;;3.42;2.67;;;8.20;99.90;;;;;;5086161;28;20025;-75
2022/04/07 02:42:25;;;;;;;3.30;2.50;;;8.10;99.90;;;;;;5069202;28;20020;-74
2022/04/07 02:44:51;;;;;;;3.15;2.20;;;8.10;99.90;;;;;;5091578;28;20024;-75
2022/04/07 02:47:17;;;;;;;2.80;2.50;;;8.10;99.90;;;;;;5089170;28;20032;-75
2022/04/07 02:49:43;;;;;;;2.53;2.13;;;8.10;99.90;;;;;;5081949;28;20099;-75
2022/04/07 02:52:10;;;;;;;4.03;2.65;;;8.20;99.90;;;;;;5085140;28;20563;-75
2022/04/07 02:54:37;;;;;;;3.00;2.10;;;8.20;99.90;;;;;;5087352;28;20028;-75
2022/04/07 02:57:04;;;;;;;3.17;2.50;;;8.30;99.90;;;;;;5071666;28;20016;-74
2022/04/07 02:59:30;;;;;;;2.20;1.98;;;8.30;99.90;;;;;;5087347;28;20580;-75
2022/04/07 03:01:58;;;;;;;2.65;1.70;;;8.30;99.90;;;;;;5089392;28;20138;-75
2022/04/07 03:04:24;;;;;;;2.97;2.10;;;8.30;99.90;;;;;;5081378;28;20033;-74
2022/04/07 03:06:52;;;;;;;2.75;2.38;;;8.30;99.90;;;;;;5073739;28;20039;-74
2022/04/07 03:09:21;;;;;;;2.95;2.10;;;8.30;99.90;;;;;;5091713;28;20521;-75
2022/04/07 03:11:47;;;;;;;3.95;2.30;;;8.10;99.90;;;;;;5090255;28;20035;-75
2022/04/07 03:14:13;;;;;;;2.92;1.90;;;8.10;99.90;;;;;;5081030;28;20033;-75
2022/04/07 03:16:40;;;;;;;3.55;2.40;;;8.10;99.90;;;;;;5080231;28;20107;-75
2022/04/07 03:19:05;;;;;;;2.88;2.58;;;8.00;99.90;;;;;;5088502;28;20020;-75
2022/04/07 03:21:31;;;;;;;5.22;2.60;;;8.10;99.90;;;;;;5089453;28;20032;-75
2022/04/07 03:23:57;;;;;;;2.90;2.45;;;8.10;99.90;;;;;;5089898;28;20085;-75
2022/04/07 03:26:22;;;;;;;4.47;2.40;;;8.10;99.90;;;;;;5085239;28;20501;-75
2022/04/07 03:28:48;;;;;;;3.10;2.55;;;8.10;99.90;;;;;;5081003;28;20051;-75
2022/04/07 03:31:14;;;;;;;3.35;2.13;;;8.00;99.90;;;;;;5089790;28;20497;-75
2022/04/07 03:33:40;;;;;;;2.72;2.30;;;8.00;99.90;;;;;;5088350;28;20170;-75
2022/04/07 03:36:06;;;;;;;3.10;2.65;;;7.90;99.90;;;;;;5072800;28;20107;-75
2022/04/07 03:38:31;;;;;;;5.85;2.75;;;8.00;99.90;;;;;;5085761;28;20505;-75
2022/04/07 03:40:57;;;;;;;3.42;2.67;;;7.90;99.90;;;;;;5083243;28;20020;-75
2022/04/07 03:43:23;;;;;;;3.08;2.47;;;8.00;99.90;;;;;;5081075;28;20125;-75
2022/04/07 03:45:49;;;;;;;3.35;2.72;;;8.00;99.90;;;;;;5087534;28;20036;-74
2022/04/07 03:48:14;;;;;;;4.30;3.08;;;8.10;99.90;;;;;;5090771;28;20028;-75
2022/04/07 03:50:41;;;;;;;3.63;2.60;;;8.20;99.90;;;;;;5080944;28;20443;-75
2022/04/07 03:53:07;;;;;;;4.97;3.13;;;8.20;99.90;;;;;;5083047;28;20035;-75
2022/04/07 03:55:32;;;;;;;4.80;2.78;;;8.10;99.90;;;;;;5078609;28;20101;-75
2022/04/07 03:57:58;;;;;;;2.67;2.38;;;8.10;99.90;;;;;;5088252;28;20020;-75
2022/04/07 04:00:26;;;;;;;4.05;2.78;;;8.10;99.90;;;;;;5089643;28;20012;-74
2022/04/07 04:02:52;;;;;;;5.13;2.95;;;8.10;99.90;;;;;;5090464;28;20012;-74
2022/04/07 04:05:18;;;;;;;4.75;3.00;;;8.00;99.90;;;;;;5080299;28;20036;-74
2022/04/07 04:07:44;;;;;;;5.13;2.67;;;8.00;99.90;;;;;;5088497;28;20125;-74
2022/04/07 04:10:10;;;;;;;4.45;3.08;;;8.00;99.90;;;;;;5084747;28;20514;-74
2022/04/07 04:12:35;;;;;;;3.90;2.80;;;7.90;99.90;;;;;;5085698;28;20020;-74
2022/04/07 04:15:01;;;;;;;5.28;2.78;;;8.00;99.90;;;;;;5083832;28;20054;-74
2022/04/07 04:17:31;;;;;;;3.58;2.50;;;8.00;99.90;;;;;;5089175;28;20401;-73
2022/04/07 04:19:56;;;;;;;4.63;2.63;;;7.90;99.90;;;;;;5075868;28;20035;-73
2022/04/07 04:22:22;;;;;;;5.43;3.13;;;7.80;99.90;;;;;;5074509;28;20020;-74
2022/04/07 04:24:48;;;;;;;4.57;2.67;;;7.80;99.90;;;;;;5071377;28;20051;-74
2022/04/07 04:27:14;;;;;;;5.43;3.47;;;7.90;99.90;;;;;;5090714;28;20032;-74
2022/04/07 04:29:43;;;;;;;5.07;2.50;;;7.80;99.90;;;;;;5074286;28;20202;-74
2022/04/07 04:32:09;;;;;;;3.50;2.55;;;7.90;99.90;;;;;;5071324;28;20486;-74
2022/04/07 04:34:35;;;;;;;3.70;2.33;;;7.80;99.90;;;;;;5078944;28;20039;-74
2022/04/07 04:37:01;;;;;;;3.63;2.75;;;7.70;99.90;;;;;;5084171;28;20406;-73
2022/04/07 04:39:27;;;;;;;4.40;2.55;;;7.70;99.90;;;;;;5085938;28;20025;-74
2022/04/07 04:41:52;;;;;;;4.80;2.63;;;7.70;99.90;;;;;;5082249;28;20436;-74
2022/04/07 04:44:18;;;;;;;3.22;2.40;;;7.60;99.90;;;;;;5088601;28;20043;-74
2022/04/07 04:46:44;;;;;;;2.40;2.05;;;7.60;99.90;;;;;;5081159;28;20028;-74
2022/04/07 04:49:09;;;;;;;2.50;2.30;;;7.60;99.90;;;;;;5088370;28;20109;-74
2022/04/07 04:51:35;;;;;;;2.72;2.10;;;7.70;99.90;;;;;;5089295;28;20024;-74
2022/04/07 04:54:01;;;;;;;3.50;1.88;;;7.70;99.90;;;;;;5087815;28;20111;-74
2022/04/07 04:56:27;;;;;;;2.88;2.08;;;7.70;99.90;;;;;;5079941;28;20047;-74
2022/04/07 04:58:57;;;;;;;2.60;1.90;;;7.70;99.90;;;;;;5082833;28;20036;-74
2022/04/07 05:01:23;;;;;;;2.95;2.00;;;7.80;99.90;;;;;;5080522;28;20024;-74
2022/04/07 05:03:49;;;;;;;1.98;1.83;;;7.70;99.90;;;;;;5088521;28;20055;-74
2022/04/07 05:06:15;;;;;;;2.97;2.05;;;7.70;99.90;;;;;;5092641;28;20485;-74
2022/04/07 05:08:41;;;;;;;2.88;2.15;;;7.80;99.90;;;;;;5091729;28;20089;-74
2022/04/07 05:11:07;;;;;;;2.65;2.30;;;7.70;99.90;;;;;;5091216;28;20447;-74
2022/04/07 05:13:33;;;;;;;7.00;2.15;;;7.70;99.90;;;;;;5089878;28;20034;-74
2022/04/07 05:15:58;;;;;;;2.65;2.35;;;7.70;99.90;;;;;;5092196;28;20054;-74
2022/04/07 05:18:24;;;;;;;4.13;2.13;;;7.70;99.90;;;;;;5092518;28;20082;-74
2022/04/07 05:20:50;;;;;;;2.83;2.13;;;7.60;99.90;;;;;;5077254;28;20023;-73
2022/04/07 05:23:15;;;;;;;3.13;1.65;;;7.40;99.90;;;;;;5085801;28;20492;-74
2022/04/07 05:25:41;;;;;;;4.70;2.65;;;7.40;99.90;;;;;;5083690;28;20035;-74
2022/04/07 05:28:08;;;;;;;2.45;1.98;;;7.60;99.90;;;;;;5085967;28;20054;-74
2022/04/07 05:30:34;;;;;;;2.42;1.85;;;7.50;99.90;;;;;;5088381;28;20024;-74
2022/04/07 05:32:59;;;;;;;3.03;2.10;;;7.40;99.90;;;;;;5086076;28;20028;-75
2022/04/07 05:35:28;;;;;;;2.95;2.50;;;7.50;99.90;;;;;;5078372;28;20032;-74
2022/04/07 05:37:59;;;;;;;3.22;2.22;;;7.50;99.90;;;;;;5075514;28;20028;-74
2022/04/07 05:40:24;;;;;;;4.40;2.20;;;7.40;99.90;;;;;;5090963;28;20035;-74
2022/04/07 05:42:50;;;;;;;2.80;2.55;;;7.40;99.90;;;;;;5074720;28;20025;-74
2022/04/07 05:45:16;;;;;;;4.32;3.13;;;7.40;99.90;;;;;;5077415;28;20569;-74
2022/04/07 05:47:41;;;;;;;5.72;2.85;;;7.50;99.90;;;;;;5089207;28;20089;-74
2022/04/07 05:50:08;;;;;;;3.53;3.10;;;7.50;99.90;;;;;;5091872;28;20024;-74
2022/04/07 05:52:34;;;;;;;3.78;2.55;;;7.50;99.90;;;;;;5091076;28;20046;-74
2022/04/07 05:54:59;;;;;;;3.22;2.60;;;7.40;99.90;;;;;;5086917;28;20037;-74
2022/04/07 05:57:31;;;;;;;4.78;2.50;;;7.50;99.90;;;;;;5087090;28;20477;-74
2022/04/07 06:00:04;;;;;;;2.70;2.50;;;7.60;99.90;;;;;;5085363;28;20054;-74
2022/04/07 06:02:30;;;;;;;3.30;2.15;;;7.60;99.90;;;;;;5090196;28;20035;-74
2022/04/07 06:04:56;;;;;;;3.25;2.55;;;7.70;99.90;;;;;;5080789;28;20396;-74
2022/04/07 06:07:22;;;;;;;3.92;2.08;;;7.70;99.90;;;;;;5077578;28;20508;-74
2022/04/07 06:09:48;;;;;;;3.50;2.67;;;7.60;99.90;;;;;;5091179;28;20024;-74
2022/04/07 06:12:14;;;;;;;2.88;2.03;;;7.70;99.90;;;;;;5092950;28;20409;-74
2022/04/07 06:14:39;;;;;;;2.85;2.30;;;7.80;99.90;;;;;;5090717;28;20505;-73
2022/04/07 06:17:05;;;;;;;3.95;2.60;;;7.70;99.90;;;;;;5077821;28;20052;-74
2022/04/07 06:19:31;;;;;;;3.20;2.80;;;7.80;99.90;;;;;;5078131;28;20148;-74
2022/04/07 06:21:56;;;;;;;3.30;2.67;;;7.90;99.90;;;;;;5089656;28;20093;-74
2022/04/07 06:24:22;;;;;;;3.90;2.85;;;7.90;99.90;;;;;;5091838;28;20095;-74
2022/04/07 06:26:49;;;;;;;3.40;2.47;;;8.00;99.90;;;;;;5091401;28;20439;-74
2022/04/07 06:29:15;;;;;;;4.22;2.80;;;8.00;99.90;;;;;;5088616;28;20580;-74
2022/04/07 06:31:41;;;;;;;4.15;3.00;;;8.10;99.90;;;;;;5087887;28;20024;-73
2022/04/07 06:34:06;;;;;;;3.72;3.00;;;8.20;99.90;;;;;;5088610;28;20024;-74
2022/04/07 06:36:32;;;;;;;4.15;2.85;;;8.50;99.90;;;;;;5074460;28;20025;-74
2022/04/07 06:38:58;;;;;;;3.15;2.70;;;8.50;99.90;;;;;;5077532;28;20048;-74
2022/04/07 06:41:24;;;;;;;2.75;2.28;;;8.60;99.90;;;;;;5087139;28;20028;-74
2022/04/07 06:43:49;;;;;;;3.20;2.28;;;8.70;99.90;;;;;;5087113;28;20394;-73
2022/04/07 06:46:15;;;;;;;3.85;2.20;;;8.60;99.90;;;;;;5090697;28;20366;-74
2022/04/07 06:48:42;;;;;;;3.42;2.25;;;8.80;99.90;;;;;;5088980;28;20104;-74
2022/04/07 06:51:09;;;;;;;2.33;2.08;;;8.90;99.90;;;;;;5076321;28;20063;-74
2022/04/07 06:53:35;;;;;;;2.17;1.98;;;9.20;99.90;;;;;;5080132;28;20032;-74
2022/04/07 06:56:01;;;;;;;2.13;1.73;;;10.30;99.90;;;;;;5089143;28;20482;-74
2022/04/07 06:58:26;;;;;;;3.20;2.40;;;11.10;99.90;;;;;;5081391;28;20461;-74
2022/04/07 07:00:52;;;;;;;2.58;1.77;;;10.80;99.90;;;;;;5089990;28;20016;-74
2022/04/07 07:03:18;;;;;;;2.92;2.00;;;10.50;99.90;;;;;;5092052;28;20039;-74
2022/04/07 07:05:44;;;;;;;2.53;1.95;;;11.20;99.90;;;;;;5090101;28;20441;-74
2022/04/07 07:08:17;;;;;;;2.15;1.70;;;14.40;99.90;;;;;;5081626;28;20413;-74
2022/04/07 07:10:45;;;;;;;3.40;2.30;;;16.90;98.30;;;;;;5080860;28;20107;-74
2022/04/07 07:13:12;;;;;;;2.72;1.60;;;18.60;96.20;;;;;;5088521;28;20032;-74
2022/04/07 07:15:39;;;;;;;3.83;2.40;;;18.70;94.80;;;;;;5071425;28;20028;-74
2022/04/07 07:18:05;;;;;;;2.88;2.38;;;18.70;94.80;;;;;;5075795;28;20063;-75
2022/04/07 07:20:31;;;;;;;2.95;1.88;;;19.70;93.10;;;;;;5087348;28;20024;-74
2022/04/07 07:22:56;;;;;;;2.30;1.60;;;19.40;93.90;;;;;;5082089;28;20383;-74
2022/04/07 07:25:23;;;;;;;2.13;1.55;;;20.80;92.40;;;;;;5076449;28;20028;-75
2022/04/07 07:27:49;;;;;;;2.55;1.90;;;20.80;92.30;;;;;;5087619;28;20016;-75
2022/04/07 07:30:17;;;;;;;3.90;2.00;;;20.30;92.10;;;;;;5091074;28;20062;-75
2022/04/07 07:32:47;;;;;;;2.53;1.98;;;19.50;93.10;;;;;;5089273;28;20036;-75
2022/04/07 07:35:14;;;;;;;2.75;1.70;;;19.30;93.60;;;;;;5086533;28;20225;-75
2022/04/07 07:37:54;;;;;;;2.83;1.45;;;18.80;93.40;;;;;;5080656;28;20569;-75
2022/04/07 07:40:22;;;;;;;1.88;1.58;;;18.10;94.80;;;;;;5088443;28;20031;-75
2022/04/07 07:42:49;;;;;;;2.03;1.50;;;18.10;94.80;;;;;;5088321;28;20048;-75
2022/04/07 07:45:17;;;;;;;2.28;1.65;;;17.80;94.80;;;;;;5090889;28;20114;-75
2022/04/07 07:47:42;;;;;;;2.38;1.83;;;17.10;96.40;;;;;;5083245;28;20093;-75
2022/04/07 07:50:09;;;;;;;6.15;1.88;;;16.40;95.80;;;;;;5088211;28;20436;-75
2022/04/07 07:52:35;;;;;;;6.22;2.00;;;14.80;98.20;;;;;;5087816;28;20035;-75
2022/04/07 07:55:01;;;;;;;2.45;1.65;;;14.50;99.20;;;;;;5068275;28;20045;-75
2022/04/07 07:57:27;;;;;;;5.28;2.47;;;14.80;99.10;;;;;;5085234;28;20489;-75
2022/04/07 07:59:53;;;;;;;8.27;2.42;;;15.60;98.80;;;;;;5090339;28;20020;-75
2022/04/07 08:02:18;;;;;;;4.18;1.80;;;15.50;97.90;;;;;;5087773;28;20397;-75
2022/04/07 08:04:45;;;;;;;3.63;2.20;;;15.60;97.80;;;;;;5088836;28;20386;-75
2022/04/07 08:07:10;;;;;;;4.63;2.20;;;15.30;98.10;;;;;;5087874;28;20020;-75
2022/04/07 08:09:36;;;;;;;2.20;1.30;;;15.30;98.00;;;;;;5070151;28;20404;-76
2022/04/07 08:12:02;;;;;;;2.70;1.30;;;15.20;98.60;;;;;;5084174;28;20405;-75
2022/04/07 08:14:28;;;;;;;1.50;1.40;;;14.90;98.80;;;;;;5086881;28;20024;-75
2022/04/07 08:16:54;;;;;;;2.60;1.02;;;14.70;99.00;;;;;;5080727;28;20016;-75
2022/04/07 08:19:20;;;;;;;1.85;1.00;;;14.60;99.40;;;;;;5085013;28;20409;-75
2022/04/07 08:21:46;;;;;;;4.13;1.70;;;14.70;99.20;;;;;;5069902;28;20108;-75
2022/04/07 08:24:12;;;;;;;3.25;1.60;;;14.50;99.40;;;;;;5075189;28;20029;-74
2022/04/07 08:26:38;;;;;;;2.17;1.30;;;14.30;99.60;;;;;;5079325;28;20453;-75
2022/04/07 08:29:04;;;;;;;4.60;2.10;;;13.90;99.90;;;;;;5080909;28;20030;-74
2022/04/07 08:31:30;;;;;;;3.60;1.67;;;13.80;99.90;;;;;;5088723;28;20046;-75
2022/04/07 08:33:55;;;;;;;3.25;1.52;;;13.90;99.90;;;;;;5088343;28;20464;-75
2022/04/07 08:36:21;;;;;;;2.70;1.23;;;13.90;99.90;;;;;;5090746;28;20032;-75
2022/04/07 08:38:47;;;;;;;1.52;1.23;;;14.00;99.90;;;;;;5088623;28;20032;-75
2022/04/07 08:41:12;;;;;;;1.58;1.02;;;14.20;99.90;;;;;;5090989;28;20020;-75
2022/04/07 08:43:42;;;;;;;3.85;1.33;;;14.50;99.90;;;;;;5090681;28;20432;-75
2022/04/07 08:46:11;;;;;;;5.15;1.33;;;15.10;99.20;;;;;;5091218;28;20024;-75
2022/04/07 08:48:38;;;;;;;2.35;1.15;;;15.60;98.70;;;;;;5091407;28;20051;-75
2022/04/07 08:51:05;;;;;;;1.73;1.20;;;16.00;98.20;;;;;;5087846;28;20031;-75
2022/04/07 08:53:32;;;;;;;1.30;1.20;;;16.40;98.00;;;;;;5092539;28;20024;-75
2022/04/07 08:56:03;;;;;;;1.92;1.52;;;16.00;97.70;;;;;;5092170;28;20055;-75
2022/04/07 08:58:29;;;;;;;3.13;1.30;;;16.30;97.40;;;;;;5089636;28;20110;-75
2022/04/07 09:00:54;;;;;;;2.25;1.48;;;16.90;97.00;;;;;;5091181;28;20104;-75
2022/04/07 09:03:20;;;;;;;3.38;1.10;;;16.90;96.40;;;;;;5094218;28;20039;-76
2022/04/07 09:05:56;;;;;;;2.50;1.08;;;16.60;96.70;;;;;;5092087;28;20032;-76
2022/04/07 09:08:30;;;;;;;1.20;1.10;;;16.40;96.60;;;;;;5092003;28;20032;-75
2022/04/07 09:10:57;;;;;;;1.42;1.20;;;16.30;96.80;;;;;;5084441;28;20024;-75
2022/04/07 09:13:23;;;;;;;2.25;1.10;;;16.50;96.60;;;;;;5091509;28;20028;-75
2022/04/07 09:15:50;;;;;;;3.30;1.08;;;16.90;96.30;;;;;;5091421;28;20394;-76
2022/04/07 09:18:25;;;;;;;2.35;0.85;;;17.00;95.40;;;;;;5074337;28;20021;-75
2022/04/07 09:20:51;;;;;;;2.30;1.30;;;16.90;95.10;;;;;;5085379;28;20020;-76
2022/04/07 09:23:17;;;;;;;4.35;1.23;;;17.30;95.90;;;;;;5088545;28;20088;-75
2022/04/07 09:25:49;;;;;;;1.30;0.90;;;17.50;95.00;;;;;;5086373;28;20111;-75
2022/04/07 09:28:25;;;;;;;1.23;0.95;;;17.80;95.10;;;;;;5090906;28;20103;-76
2022/04/07 09:30:51;;;;;;;1.55;1.05;;;17.60;94.40;;;;;;5088732;28;20103;-75
2022/04/07 09:33:24;;;;;;;2.65;1.10;;;17.60;94.50;;;;;;5088431;28;20573;-76
2022/04/07 09:36:05;;;;;;;0.95;0.88;;;17.60;94.00;;;;;;5092459;28;20046;-75
2022/04/07 09:38:31;;;;;;;1.13;0.73;;;17.80;94.30;;;;;;5091381;28;20031;-76
2022/04/07 09:41:26;;;;;;;1.23;0.85;;;18.30;93.80;;;;;;5083386;28;20043;-76
2022/04/07 09:44:00;;;;;;;2.47;1.33;;;18.00;92.90;;;;;;5089018;28;20039;-76
2022/04/07 09:46:38;;;;;;;0.80;0.80;;;17.90;94.10;;;;;;5084515;28;20112;-76
2022/04/07 09:49:10;;;;;;;3.03;0.80;;;18.10;94.20;;;;;;5072109;28;20122;-75
2022/04/07 09:51:38;;;;;;;1.02;0.75;;;18.30;93.40;;;;;;5087930;28;20516;-76
2022/04/07 09:54:09;;;;;;;0.98;0.90;;;18.40;93.10;;;;;;5086619;28;20115;-76
2022/04/07 09:56:35;;;;;;;2.00;0.80;;;18.10;93.80;;;;;;5088187;28;20202;-75
2022/04/07 09:59:02;;;;;;;1.95;1.05;;;18.40;93.70;;;;;;5087210;28;20027;-75
2022/04/07 10:01:29;;;;;;;2.17;0.70;;;18.60;93.10;;;;;;5082848;28;20042;-76
2022/04/07 10:03:55;;;;;;;0.95;0.82;;;18.40;93.00;;;;;;5075212;28;20116;-76
2022/04/07 10:06:21;;;;;;;6.60;1.65;;;18.60;93.30;;;;;;5075677;28;20036;-75
2022/04/07 10:08:52;;;;;;;1.85;0.90;;;18.60;93.30;;;;;;5090682;28;20036;-76
2022/04/07 10:11:18;;;;;;;2.40;1.00;;;18.60;92.50;;;;;;5079496;28;20028;-76
2022/04/07 10:13:46;;;;;;;2.47;1.30;;;18.10;93.10;;;;;;5079952;28;20036;-76
2022/04/07 10:16:16;;;;;;;2.13;1.20;;;18.00;93.20;;;;;;5088825;28;20023;-76
2022/04/07 10:19:11;;;;;;;3.40;0.80;;;18.20;93.10;;;;;;5071072;28;20025;-76
2022/04/07 10:22:21;;;;;;;1.48;1.05;;;18.70;92.80;;;;;;5063773;28;20036;-77
2022/04/07 10:24:51;;;;;;;2.45;1.20;;;18.60;92.30;;;;;;5089157;28;20040;-76
2022/04/07 10:27:22;;;;;;;2.55;1.13;;;18.40;92.60;;;;;;5092484;28;20082;-76
2022/04/07 10:30:06;;;;;;;1.30;1.20;;;18.20;92.40;;;;;;5090496;28;20038;-76
2022/04/07 10:32:39;;;;;;;2.53;1.10;;;18.60;92.10;;;;;;5081995;28;20103;-76
2022/04/07 10:35:06;;;;;;;0.80;0.80;;;18.70;92.00;;;;;;5088131;28;20524;-76
2022/04/07 10:37:46;;;;;;;1.83;0.80;;;18.50;92.40;;;;;;5088277;28;20047;-76
2022/04/07 10:40:44;;;;;;;0.90;0.70;;;18.80;92.50;;;;;;5090466;28;20024;-76
2022/04/07 10:43:13;;;;;;;1.48;0.80;;;18.90;91.30;;;;;;5075584;28;20119;-76
2022/04/07 10:45:41;;;;;;;2.45;1.17;;;18.60;91.90;;;;;;5088739;28;20020;-76
2022/04/07 10:48:16;;;;;;;3.15;1.33;;;18.70;92.20;;;;;;5085892;28;20020;-76
2022/04/07 10:50:50;;;;;;;1.95;1.13;;;19.20;91.80;;;;;;5089475;28;20493;-76
2022/04/07 10:53:39;;;;;;;1.27;1.05;;;19.60;91.10;;;;;;5082123;28;20024;-76
2022/04/07 10:56:24;;;;;;;3.67;1.00;;;19.00;90.70;;;;;;5086836;28;20098;-76
2022/04/07 10:58:54;;;;;;;8.70;1.20;;;18.50;90.60;;;;;;5081648;28;20023;-76
2022/04/07 11:01:29;;;;;;;1.20;1.02;;;19.00;90.60;;;;;;5089708;28;20037;-77
2022/04/07 11:04:21;;;;;;;1.00;0.80;;;19.60;90.40;;;;;;5073469;28;20062;-76
2022/04/07 11:07:05;;;;;;;1.60;0.95;;;19.70;90.00;;;;;;5068240;28;20079;-76
2022/04/07 11:09:55;;;;;;;3.67;1.20;;;19.70;88.60;;;;;;5069940;28;20021;-77
2022/04/07 11:12:28;;;;;;;1.58;1.17;;;19.60;89.60;;;;;;5087795;28;20031;-76
2022/04/07 11:15:17;;;;;;;1.80;1.40;;;19.70;89.00;;;;;;5082918;28;20024;-76
2022/04/07 11:17:43;;;;;;;1.13;1.02;;;19.90;87.50;;;;;;5081084;28;20028;-76
2022/04/07 11:20:18;;;;;;;2.03;0.98;;;19.60;86.40;;;;;;5089100;28;20554;-76
2022/04/07 11:23:07;;;;;;;1.55;0.90;;;19.90;88.00;;;;;;5086389;28;20074;-76
2022/04/07 11:25:43;;;;;;;3.28;1.10;;;19.20;87.00;;;;;;5075983;28;20520;-76
2022/04/07 11:28:10;;;;;;;1.35;0.80;;;19.10;87.10;;;;;;5089256;28;20117;-76
2022/04/07 11:30:44;;;;;;;0.80;0.80;;;19.30;87.60;;;;;;5089052;28;20035;-77
2022/04/07 11:33:15;;;;;;;3.22;0.90;;;19.00;86.30;;;;;;5091420;28;20028;-77
2022/04/07 11:35:42;;;;;;;2.00;1.30;;;18.90;87.40;;;;;;5087205;28;20016;-76
2022/04/07 11:38:08;;;;;;;1.60;0.90;;;19.30;88.20;;;;;;5088823;28;20277;-77
2022/04/07 11:40:34;;;;;;;1.02;0.93;;;19.30;85.60;;;;;;5089093;28;20039;-76
2022/04/07 11:43:02;;;;;;;0.82;0.82;;;19.40;86.50;;;;;;5089726;28;20020;-76
2022/04/07 11:45:31;;;;;;;2.70;1.10;;;19.90;87.10;;;;;;5088665;28;20111;-76
2022/04/07 11:47:57;;;;;;;2.53;0.80;;;20.20;85.20;;;;;;5089907;28;20060;-76
2022/04/07 11:50:23;;;;;;;5.78;1.10;;;19.80;83.10;;;;;;5080823;28;20481;-76
2022/04/07 11:52:50;;;;;;;1.95;0.70;;;19.40;82.80;;;;;;5089650;28;20030;-76
2022/04/07 11:55:27;;;;;;;1.73;0.90;;;19.70;83.50;;;;;;5084392;28;20048;-76
2022/04/07 11:57:58;;;;;;;1.08;0.60;;;19.60;84.20;;;;;;5072576;28;20058;-76
2022/04/07 12:00:29;;;;;;;2.88;1.00;;;19.70;84.50;;;;;;5090980;28;20024;-77
2022/04/07 12:03:13;;;;;;;1.13;0.80;;;19.50;85.10;;;;;;5082822;28;20055;-76
2022/04/07 12:05:39;;;;;;;1.83;1.10;;;19.70;83.80;;;;;;5080285;28;20085;-76
2022/04/07 12:08:13;;;;;;;1.00;0.80;;;20.10;85.00;;;;;;5080700;28;20032;-76
2022/04/07 12:10:40;;;;;;;1.55;0.85;;;20.30;83.20;;;;;;5080675;28;20024;-76
2022/04/07 12:13:07;;;;;;;2.13;1.17;;;20.50;81.70;;;;;;5083482;28;20032;-76
2022/04/07 12:15:37;;;;;;;1.55;0.77;;;20.40;80.80;;;;;;5089909;28;20031;-76
2022/04/07 12:18:09;;;;;;;2.58;1.27;;;20.50;81.60;;;;;;5094776;28;20035;-76
2022/04/07 12:20:37;;;;;;;2.15;0.88;;;20.80;81.50;;;;;;5092066;28;20032;-76
2022/04/07 12:23:08;;;;;;;1.10;0.77;;;20.70;79.60;;;;;;5091686;28;20020;-76
2022/04/07 12:25:37;;;;;;;2.80;0.80;;;20.40;80.30;;;;;;5093268;28;20028;-76
2022/04/07 12:28:12;;;;;;;1.55;1.05;;;20.50;79.20;;;;;;5091033;28;20099;-76
2022/04/07 12:30:51;;;;;;;2.05;1.13;;;20.50;79.10;;;;;;5077134;28;20028;-77
2022/04/07 12:33:43;;;;;;;2.83;0.60;;;19.90;80.20;;;;;;5074707;28;20020;-77
2022/04/07 12:36:29;;;;;;;2.25;0.85;;;20.40;80.70;;;;;;5074919;28;20032;-76
2022/04/07 12:39:03;;;;;;;0.70;0.60;;;20.70;80.10;;;;;;5094314;28;20519;-77
2022/04/07 12:41:40;;;;;;;2.13;1.20;;;21.00;79.60;;;;;;5092606;28;20029;-77
2022/04/07 12:44:08;;;;;;;4.18;1.58;;;21.20;78.70;;;;;;5089908;28;20024;-78
2022/04/07 12:46:43;;;;;;;7.82;1.35;;;21.00;77.50;;;;;;5092938;28;20051;-77
2022/04/07 12:49:09;;;;;;;3.13;1.10;;;20.80;76.00;;;;;;5085904;28;20494;-77
2022/04/07 12:51:36;;;;;;;2.65;1.38;;;20.90;76.70;;;;;;5090668;28;20039;-78
2022/04/07 12:54:13;;;;;;;2.05;0.93;;;21.10;76.30;;;;;;5091813;28;20028;-78
2022/04/07 12:56:41;;;;;;;4.45;0.73;;;21.20;76.40;;;;;;5083825;28;20521;-77
2022/04/07 12:59:12;;;;;;;2.25;0.80;;;21.00;76.20;;;;;;5083510;28;20016;-77